createdAt,value
2018-09-19T00:01:28.056Z,17.60
2018-09-19T00:07:31.948Z,17.60
2018-09-19T00:13:35.570Z,17.50
2018-09-19T00:19:38.955Z,17.30
2018-09-19T00:25:42.931Z,17.20
2018-09-19T00:31:46.340Z,17.20
2018-09-19T00:37:49.771Z,17.30
2018-09-19T00:43:53.241Z,17.20
2018-09-19T00:49:56.633Z,17.00
2018-09-19T00:56:00.705Z,16.90
2018-09-19T01:02:04.818Z,16.80
2018-09-19T01:08:08.412Z,16.70
2018-09-19T01:14:11.993Z,16.70
2018-09-19T01:20:15.766Z,16.70
2018-09-19T01:26:19.146Z,16.50
2018-09-19T01:32:22.546Z,16.40
2018-09-19T01:38:25.920Z,16.30
2018-09-19T01:44:29.455Z,16.20
2018-09-19T01:50:32.882Z,16.10
2018-09-19T01:56:36.365Z,16.00
2018-09-19T02:02:39.872Z,16.00
2018-09-19T02:08:43.961Z,15.90
2018-09-19T02:14:47.484Z,15.80
2018-09-19T02:20:50.841Z,15.70
2018-09-19T02:26:54.227Z,15.70
2018-09-19T02:32:57.745Z,15.60
2018-09-19T02:39:01.766Z,15.50
2018-09-19T02:45:05.272Z,15.50
2018-09-19T02:51:08.923Z,15.50
2018-09-19T02:57:12.307Z,15.50
2018-09-19T03:03:15.760Z,15.50
2018-09-19T03:09:19.905Z,15.40
2018-09-19T03:15:23.815Z,15.30
2018-09-19T03:21:27.332Z,15.30
2018-09-19T03:27:32.070Z,15.30
2018-09-19T03:33:35.667Z,15.20
2018-09-19T03:39:39.736Z,15.30
2018-09-19T03:45:43.780Z,15.20
2018-09-19T03:51:47.221Z,15.10
2018-09-19T03:57:50.600Z,15.10
2018-09-19T04:03:54.031Z,15.00
2018-09-19T04:09:57.436Z,14.90
2018-09-19T04:16:00.892Z,14.90
2018-09-19T04:22:05.085Z,14.90
2018-09-19T04:28:13.132Z,14.90
2018-09-19T04:34:21.089Z,14.90
2018-09-19T04:40:24.502Z,14.80
2018-09-19T04:46:27.977Z,14.80
2018-09-19T04:52:33.670Z,14.80
2018-09-19T04:58:37.219Z,14.90
2018-09-19T05:04:41.072Z,14.90
2018-09-19T05:10:44.811Z,14.80
2018-09-19T05:16:49.262Z,14.80
2018-09-19T05:22:53.516Z,14.70
2018-09-19T05:28:57.040Z,14.70
2018-09-19T05:35:00.629Z,14.80
2018-09-19T05:41:05.005Z,14.90
2018-09-19T05:47:08.640Z,14.90
2018-09-19T05:53:12.201Z,15.00
2018-09-19T05:59:15.771Z,14.90
2018-09-19T06:05:19.138Z,15.00
2018-09-19T06:11:22.644Z,15.10
2018-09-19T06:17:26.125Z,15.40
2018-09-19T06:23:29.533Z,15.60
2018-09-19T06:29:32.990Z,15.80
2018-09-19T06:35:36.436Z,16.10
2018-09-19T06:41:44.513Z,16.40
2018-09-19T06:47:47.949Z,16.70
2018-09-19T06:53:51.899Z,17.00
2018-09-19T06:59:55.651Z,17.40
2018-09-19T07:05:59.305Z,17.70
2018-09-19T07:12:02.841Z,18.00
2018-09-19T07:18:07.148Z,18.40
2018-09-19T07:24:10.682Z,18.80
2018-09-19T07:30:14.242Z,19.10
2018-09-19T07:36:17.789Z,19.30
2018-09-19T07:42:22.512Z,19.60
2018-09-19T07:48:25.997Z,19.90
2018-09-19T07:54:29.684Z,20.10
2018-09-19T08:00:33.693Z,20.30
2018-09-19T08:06:37.370Z,20.40
2018-09-19T08:12:40.961Z,20.50
2018-09-19T08:18:49.360Z,20.60
2018-09-19T08:24:52.785Z,20.80
2018-09-19T08:30:56.224Z,21.00
2018-09-19T08:36:59.691Z,21.10
2018-09-19T08:43:03.355Z,21.20
2018-09-19T08:49:06.856Z,21.40
2018-09-19T08:55:10.303Z,21.60
2018-09-19T09:01:13.833Z,21.80
2018-09-19T09:07:17.896Z,22.00
2018-09-19T09:13:21.779Z,22.20
2018-09-19T09:19:25.233Z,22.40
2018-09-19T09:25:28.680Z,22.50
2018-09-19T09:31:32.103Z,22.70
2018-09-19T09:37:35.531Z,22.80
2018-09-19T09:43:39.039Z,23.00
2018-09-19T09:49:43.189Z,23.20
2018-09-19T09:55:46.616Z,23.30
2018-09-19T10:01:51.341Z,23.50
2018-09-19T10:07:54.795Z,23.60
2018-09-19T10:13:58.311Z,23.80
2018-09-19T10:20:01.732Z,24.10
2018-09-19T10:26:05.351Z,24.20
2018-09-19T10:32:09.082Z,24.40
2018-09-19T10:38:13.294Z,24.50
2018-09-19T10:44:16.883Z,24.60
2018-09-19T10:50:21.539Z,24.90
2018-09-19T10:56:25.217Z,25.30
2018-09-19T11:02:28.606Z,25.70
2018-09-19T11:08:32.001Z,26.00
2018-09-19T11:14:35.600Z,26.10
2018-09-19T11:20:39.053Z,26.20
2018-09-19T11:26:42.489Z,26.20
2018-09-19T11:32:45.960Z,26.20
2018-09-19T11:38:49.399Z,26.40
2018-09-19T11:44:52.868Z,26.40
2018-09-19T11:50:56.249Z,26.50
2018-09-19T11:57:00.410Z,26.70
2018-09-19T12:03:04.028Z,27.00
2018-09-19T12:09:12.148Z,27.10
2018-09-19T12:15:15.648Z,27.10
2018-09-19T12:21:19.184Z,27.20
2018-09-19T12:27:22.608Z,27.30
2018-09-19T12:33:26.112Z,27.40
2018-09-19T12:39:29.595Z,27.60
2018-09-19T12:45:32.965Z,27.40
2018-09-19T12:51:36.547Z,27.20
2018-09-19T12:57:39.936Z,27.30
2018-09-19T13:03:44.122Z,27.50
2018-09-19T13:09:47.539Z,27.70
2018-09-19T13:15:50.975Z,27.80
2018-09-19T13:21:54.391Z,27.90
2018-09-19T13:27:57.816Z,27.90
2018-09-19T13:34:01.713Z,28.20
2018-09-19T13:40:05.533Z,28.20
2018-09-19T13:46:10.086Z,28.20
2018-09-19T13:52:13.792Z,28.10
2018-09-19T13:58:17.252Z,28.20
2018-09-19T14:04:20.845Z,28.30
2018-09-19T14:10:24.807Z,28.30
2018-09-19T14:16:28.313Z,28.10
2018-09-19T14:22:33.285Z,28.10
2018-09-19T14:28:36.701Z,28.20
2018-09-19T14:34:40.253Z,28.10
2018-09-19T14:40:43.816Z,27.90
2018-09-19T14:46:48.011Z,28.20
2018-09-19T14:52:52.079Z,28.40
2018-09-19T14:58:55.668Z,28.50
2018-09-19T15:04:59.531Z,28.70
2018-09-19T15:11:03.016Z,28.80
2018-09-19T15:17:06.653Z,28.80
2018-09-19T15:23:10.209Z,28.50
2018-09-19T15:29:13.682Z,28.60
2018-09-19T15:35:17.131Z,29.00
2018-09-19T15:41:20.607Z,29.10
2018-09-19T15:47:23.964Z,29.00
2018-09-19T15:53:30.696Z,28.50
2018-09-19T15:59:34.139Z,28.20
2018-09-19T16:05:37.618Z,27.90
2018-09-19T16:11:41.189Z,27.80
2018-09-19T16:17:44.654Z,27.60
2018-09-19T16:23:48.426Z,27.40
2018-09-19T16:29:51.937Z,27.30
2018-09-19T16:35:56.255Z,27.20
2018-09-19T16:42:00.922Z,27.00
2018-09-19T16:48:09.025Z,26.90
2018-09-19T16:54:12.548Z,26.70
2018-09-19T17:00:16.302Z,26.50
2018-09-19T17:06:19.797Z,26.30
2018-09-19T17:12:23.489Z,26.10
2018-09-19T17:18:26.936Z,25.90
2018-09-19T17:24:30.356Z,25.60
2018-09-19T17:30:33.856Z,25.40
2018-09-19T17:36:37.244Z,25.20
2018-09-19T17:42:40.749Z,25.00
2018-09-19T17:48:45.198Z,24.80
2018-09-19T17:54:48.771Z,24.60
2018-09-19T18:00:52.843Z,24.40
2018-09-19T18:06:57.198Z,24.20
2018-09-19T18:13:00.709Z,24.00
2018-09-19T18:19:04.752Z,23.80
2018-09-19T18:25:08.393Z,23.70
2018-09-19T18:31:11.793Z,23.50
2018-09-19T18:37:15.284Z,23.40
2018-09-19T18:43:18.684Z,23.30
2018-09-19T18:49:22.160Z,23.20
2018-09-19T18:55:26.327Z,23.00
2018-09-19T19:01:30.810Z,22.90
2018-09-19T19:07:34.197Z,22.70
2018-09-19T19:13:37.734Z,22.60
2018-09-19T19:19:41.508Z,22.50
2018-09-19T19:25:44.996Z,22.40
2018-09-19T19:31:48.746Z,22.30
2018-09-19T19:37:52.346Z,22.10
2018-09-19T19:43:56.638Z,22.00
2018-09-19T19:50:00.128Z,21.90
2018-09-19T19:56:03.773Z,21.80
2018-09-19T20:02:07.377Z,21.50
2018-09-19T20:08:11.168Z,21.50
2018-09-19T20:14:14.900Z,21.40
2018-09-19T20:20:18.603Z,21.20
2018-09-19T20:26:22.269Z,21.00
2018-09-19T20:32:26.024Z,21.00
2018-09-19T20:38:29.777Z,20.80
2018-09-19T20:44:33.538Z,20.60
2018-09-19T20:50:37.430Z,20.20
2018-09-19T20:56:41.054Z,20.00
2018-09-19T21:02:44.681Z,19.70
2018-09-19T21:08:48.291Z,19.60
2018-09-19T21:14:52.415Z,19.40
2018-09-19T21:20:55.968Z,19.40
2018-09-19T21:27:00.048Z,19.30
2018-09-19T21:33:03.825Z,19.10
2018-09-19T21:39:10.097Z,19.00
2018-09-19T21:45:13.616Z,18.90
2018-09-19T21:51:17.099Z,18.80
2018-09-19T21:57:20.528Z,18.80
2018-09-19T22:03:24.495Z,18.80
2018-09-19T22:09:28.132Z,18.70
2018-09-19T22:15:31.565Z,18.60
2018-09-19T22:21:34.996Z,18.50
2018-09-19T22:27:38.605Z,18.40
2018-09-19T22:33:41.919Z,18.30
2018-09-19T22:39:45.487Z,18.20
2018-09-19T22:45:48.896Z,18.20
2018-09-19T22:51:52.370Z,18.10
2018-09-19T22:57:55.834Z,18.00
2018-09-19T23:03:59.354Z,17.90
2018-09-19T23:10:02.819Z,17.80
2018-09-19T23:16:06.206Z,17.80
2018-09-19T23:22:09.676Z,17.80
2018-09-19T23:28:13.111Z,17.80
2018-09-19T23:34:17.912Z,17.70
2018-09-19T23:40:21.976Z,17.70
2018-09-19T23:46:25.448Z,17.70
2018-09-19T23:52:28.834Z,17.60
2018-09-19T23:58:32.431Z,17.60
